»·PEaware :: N196EC F70-KCMA

N196EC :: F70-KCMA

FLIGHT INFORMATION

Flight Status: Arrived
Operator: Privately registered:
United States
More flights under this callsign
Pilot: Adrián R. (20842)
Aircraft: AERMACCHI WARRIOR
(F260)
More flights by this aircraft type
Origin: F70 French Valley
United States
Destination: KCMA Camarillo
United States
More flights between these airports :: More routes between these airports
Route: PDZ V186 FIM
File this flight plan on PilotEdge
Remarks: TEC ROUTE ONTP14
Altitude:
(Current/Filed)
6,000ft
Speed:
(Current/Filed)
155kts
Departed: 28-Nov-18 10:38 AM
Arrived: 28-Nov-18 11:29 AM
Distance/Time
Traveled:
104nm/0:51
Distance/Time
To Go:
Arrived

Flight Plot

Page will automatically refresh every two minutes.


Map Options




Map Legend


Flown Route
Filed Route
Departure Airport
Arrival Airport
Navaid (VOR, NDB)
Fix

Horizontal Profiles

Position Reports

Time Latitude Longitude Heading Altitude Ground
Speed
28-Nov-18 10:17 33.575678 -117.129542 103 1336ft 0kts
28-Nov-18 10:18 33.575678 -117.129542 103 1336ft 0kts
28-Nov-18 10:19 33.575678 -117.129542 103 1336ft 0kts
28-Nov-18 10:20 33.575678 -117.129542 103 1336ft 0kts
28-Nov-18 10:21 33.575678 -117.129542 103 1336ft 0kts
28-Nov-18 10:22 33.575678 -117.129542 103 1336ft 0kts
28-Nov-18 10:23 33.575678 -117.129542 103 1336ft 0kts
28-Nov-18 10:24 33.575678 -117.129542 103 1336ft 0kts
28-Nov-18 10:25 33.575678 -117.129542 103 1336ft 0kts
28-Nov-18 10:26 33.575678 -117.129542 103 1336ft 0kts
28-Nov-18 10:27 33.575678 -117.129542 103 1336ft 0kts
28-Nov-18 10:28 33.575678 -117.129542 103 1336ft 0kts
28-Nov-18 10:29 33.575678 -117.129542 103 1336ft 0kts
28-Nov-18 10:30 33.575678 -117.129542 103 1336ft 0kts
28-Nov-18 10:31 33.575678 -117.129542 103 1336ft 0kts
28-Nov-18 10:32 33.575678 -117.129542 103 1336ft 0kts
28-Nov-18 10:33 33.574523 -117.129214 191 1336ft 10kts
28-Nov-18 10:34 33.570605 -117.130242 192 1336ft 17kts
28-Nov-18 10:35 33.566394 -117.131658 104 1336ft 1kts
28-Nov-18 10:36 33.566394 -117.131657 103 1336ft 0kts
28-Nov-18 10:37 33.566394 -117.131657 104 1336ft 0kts
28-Nov-18 10:38 33.566394 -117.131657 104 1336ft 0kts
28-Nov-18 10:39 33.566394 -117.131657 104 1336ft 0kts
28-Nov-18 10:40 33.566373 -117.131549 102 1336ft 3kts
28-Nov-18 10:41 33.568945 -117.129888 12 1336ft 72kts
28-Nov-18 10:42 33.593420 -117.135572 313 2315ft 121kts
28-Nov-18 10:43 33.620437 -117.164575 317 3379ft 139kts
28-Nov-18 10:44 33.648368 -117.196955 314 4445ft 139kts
28-Nov-18 10:45 33.677096 -117.231825 313 5006ft 165kts
28-Nov-18 10:46 33.710385 -117.272362 313 4991ft 164kts
28-Nov-18 10:47 33.740736 -117.309793 312 4994ft 153kts
28-Nov-18 10:48 33.770964 -117.347197 311 4992ft 158kts
28-Nov-18 10:49 33.801563 -117.385158 313 4994ft 158kts
28-Nov-18 10:50 33.831123 -117.421707 317 4993ft 145kts
28-Nov-18 10:51 33.857740 -117.454776 316 5316ft 131kts
28-Nov-18 10:52 33.883316 -117.487502 313 5914ft 134kts
28-Nov-18 10:53 33.909813 -117.521269 314 5997ft 140kts
28-Nov-18 10:54 33.928770 -117.560984 292 5996ft 140kts
28-Nov-18 10:55 33.944689 -117.604943 294 5997ft 144kts
28-Nov-18 10:56 33.960796 -117.650445 294 5998ft 153kts
28-Nov-18 10:57 33.975523 -117.692937 294 5996ft 153kts
28-Nov-18 10:58 33.991600 -117.738759 295 5997ft 148kts
28-Nov-18 10:59 34.007275 -117.784215 294 5998ft 145kts
28-Nov-18 11:00 34.018903 -117.831081 289 6000ft 147kts
28-Nov-18 11:01 34.029430 -117.878288 289 5999ft 148kts
28-Nov-18 11:02 34.039971 -117.926509 289 5997ft 149kts
28-Nov-18 11:03 34.050320 -117.975018 289 5995ft 151kts
28-Nov-18 11:04 34.061041 -118.024127 288 5987ft 157kts
28-Nov-18 11:05 34.075921 -118.074034 286 5993ft 158kts
28-Nov-18 11:06 34.092462 -118.122578 293 6012ft 153kts
28-Nov-18 11:07 34.106301 -118.161558 295 5998ft 138kts
28-Nov-18 11:08 34.121368 -118.203338 295 6000ft 134kts
28-Nov-18 11:09 34.136065 -118.244535 295 6000ft 133kts
28-Nov-18 11:10 34.155868 -118.281555 299 6000ft 133kts
28-Nov-18 11:11 34.171232 -118.322345 294 6000ft 133kts
28-Nov-18 11:12 34.184643 -118.364051 293 6000ft 133kts
28-Nov-18 11:13 34.197529 -118.405884 293 6000ft 133kts
28-Nov-18 11:14 34.210344 -118.447992 292 6000ft 134kts
28-Nov-18 11:15 34.222936 -118.490353 287 5999ft 134kts
28-Nov-18 11:16 34.225264 -118.535403 281 5999ft 135kts
28-Nov-18 11:17 34.230069 -118.583522 279 5428ft 153kts
28-Nov-18 11:18 34.234455 -118.635747 279 4634ft 158kts
28-Nov-18 11:19 34.238160 -118.677412 278 4394ft 140kts
28-Nov-18 11:20 34.241854 -118.721480 278 4399ft 128kts
28-Nov-18 11:21 34.245480 -118.765193 278 4405ft 134kts
28-Nov-18 11:22 34.244764 -118.810693 265 4157ft 142kts
28-Nov-18 11:23 34.239486 -118.858482 264 3397ft 135kts
28-Nov-18 11:24 34.235571 -118.892744 264 2950ft 98kts
28-Nov-18 11:25 34.232242 -118.922534 262 2012ft 81kts
28-Nov-18 11:26 34.228774 -118.950419 261 2002ft 87kts
28-Nov-18 11:27 34.224631 -118.980385 250 2018ft 94kts
28-Nov-18 11:28 34.215755 -119.010252 258 1738ft 95kts
28-Nov-18 11:29 34.213381 -119.041846 270 1059ft 94kts
28-Nov-18 11:30 34.213573 -119.073272 270 288ft 92kts
28-Nov-18 11:31 34.213780 -119.098659 266 80ft 46kts
28-Nov-18 11:32 34.212909 -119.100893 175 80ft 0kts
28-Nov-18 11:33 34.211426 -119.099698 140 80ft 15kts
28-Nov-18 11:34 34.211026 -119.094454 90 80ft 14kts
28-Nov-18 11:35 34.210977 -119.090173 91 80ft 12kts
28-Nov-18 11:36 34.210952 -119.085692 91 80ft 14kts
28-Nov-18 11:37 34.210898 -119.080334 90 80ft 16kts
28-Nov-18 11:38 34.210223 -119.078432 89 80ft 1kts
28-Nov-18 11:39 34.210223 -119.078413 89 80ft 0kts
28-Nov-18 11:40 34.210223 -119.078413 89 80ft 0kts
28-Nov-18 11:41 34.210223 -119.078413 89 80ft 0kts

Navigation Log

Ident Type
Flight plan parsing failed, navigation log unavailable